Time;durP1;ratioP1;P1;durP2;ratioP2;P2;SDS_P1;SDS_P2;PMS_P1;PMS_P2;Temp;Humidity;BMP_temperature;BMP_pressure;BME280_temperature;BME280_humidity;BME280_pressure;Samples;Min_cycle;Max_cycle;Signal;HPM_P1;HPM_P2
2023/10/21 00:01:07;;;;;;;4.00;2.03;;;;;;;20.01;58.36;98380.63;5017271;28;20164;-41
2023/10/21 00:03:34;;;;;;;4.20;2.17;;;;;;;20.00;58.17;98387.88;5021577;28;20061;-41
2023/10/21 00:06:01;;;;;;;4.80;2.75;;;;;;;19.99;57.93;98383.56;4991522;28;20061;-42
2023/10/21 00:08:28;;;;;;;4.95;2.22;;;;;;;20.00;58.05;98387.06;5026269;28;20045;-42
2023/10/21 00:11:06;;;;;;;3.30;2.13;;;;;;;19.99;58.32;98391.63;5014476;28;20438;-43
2023/10/21 00:13:32;;;;;;;4.40;2.35;;;;;;;19.98;57.98;98389.97;5020894;28;20084;-41
2023/10/21 00:15:59;;;;;;;5.82;2.50;;;;;;;19.98;57.86;98387.28;5020218;28;20055;-41
2023/10/21 00:18:26;;;;;;;4.10;2.10;;;;;;;19.97;57.64;98394.50;5022432;28;20072;-41
2023/10/21 00:20:54;;;;;;;4.20;2.38;;;;;;;19.97;57.91;98396.38;5019078;28;20057;-41
2023/10/21 00:23:22;;;;;;;6.07;2.63;;;;;;;19.97;57.96;98399.06;5016773;28;20140;-41
2023/10/21 00:25:49;;;;;;;3.67;2.13;;;;;;;19.95;58.40;98404.69;4981926;28;20454;-41
2023/10/21 00:28:16;;;;;;;4.18;2.30;;;;;;;19.96;57.91;98408.19;5020577;28;20166;-41
2023/10/21 00:30:45;;;;;;;3.83;2.03;;;;;;;19.95;58.46;98410.06;5017933;28;20119;-41
2023/10/21 00:33:13;;;;;;;3.08;2.05;;;;;;;19.94;58.13;98408.44;5018970;28;20297;-41
2023/10/21 00:35:45;;;;;;;3.55;2.17;;;;;;;19.94;57.89;98415.69;5018261;28;20129;-42
2023/10/21 00:38:12;;;;;;;3.80;2.03;;;;;;;19.93;58.32;98428.28;5019732;28;20136;-41
2023/10/21 00:40:49;;;;;;;6.18;2.20;;;;;;;19.92;57.91;98423.94;5021096;28;20057;-41
2023/10/21 00:43:35;;;;;;;2.88;1.80;;;;;;;19.92;58.31;98434.72;5014579;28;20046;-41
2023/10/21 00:46:10;;;;;;;3.03;2.00;;;;;;;19.91;58.35;98435.75;4981705;28;20252;-41
2023/10/21 00:48:38;;;;;;;2.83;1.60;;;;;;;19.92;58.30;98434.72;5020578;28;20457;-41
2023/10/21 00:51:05;;;;;;;3.58;1.83;;;;;;;19.92;58.14;98436.56;5020939;28;20463;-42
2023/10/21 00:53:32;;;;;;;1.67;1.58;;;;;;;19.90;57.68;98442.19;5016582;28;20073;-41
2023/10/21 00:56:02;;;;;;;3.10;1.90;;;;;;;19.91;57.75;98437.63;5017088;28;20445;-41
2023/10/21 00:58:32;;;;;;;2.92;1.90;;;;;;;19.90;57.60;98436.81;5019133;28;20072;-41
2023/10/21 01:01:02;;;;;;;4.18;1.90;;;;;;;19.90;58.50;98441.34;5016637;28;20230;-43
2023/10/21 01:03:30;;;;;;;3.15;1.70;;;;;;;19.90;57.76;98439.50;5020957;28;20085;-41
2023/10/21 01:05:57;;;;;;;2.70;1.92;;;;;;;19.89;57.75;98445.09;4983543;28;20052;-41
2023/10/21 01:08:24;;;;;;;2.58;1.80;;;;;;;19.89;57.64;98445.09;5028070;28;20081;-41
2023/10/21 01:10:51;;;;;;;3.28;1.55;;;;;;;19.89;57.66;98445.09;5021430;28;20045;-41
2023/10/21 01:13:18;;;;;;;2.72;1.80;;;;;;;19.88;57.62;98448.81;5019492;28;20580;-41
2023/10/21 01:15:45;;;;;;;2.45;1.80;;;;;;;19.88;57.76;98449.66;5016910;28;20054;-42
2023/10/21 01:18:13;;;;;;;5.88;1.80;;;;;;;19.88;58.36;98449.66;5021445;28;20091;-41
2023/10/21 01:20:41;;;;;;;3.00;1.90;;;;;;;19.88;58.52;98454.19;5020512;28;20500;-41
2023/10/21 01:23:08;;;;;;;2.80;1.80;;;;;;;19.88;57.81;98467.66;5018224;28;20131;-41
2023/10/21 01:25:35;;;;;;;3.20;1.58;;;;;;;19.87;57.81;98468.69;4985101;28;20415;-42
2023/10/21 01:28:01;;;;;;;3.85;1.83;;;;;;;19.86;57.85;98473.25;5042832;28;20385;-42
2023/10/21 01:30:28;;;;;;;3.78;1.65;;;;;;;19.86;57.77;98475.09;5019596;28;20049;-41
2023/10/21 01:32:55;;;;;;;1.85;1.38;;;;;;;19.85;57.79;98470.78;5020788;28;20798;-41
2023/10/21 01:35:21;;;;;;;2.45;1.48;;;;;;;19.85;57.88;98479.66;5015366;28;20121;-41
2023/10/21 01:37:48;;;;;;;2.55;1.63;;;;;;;19.85;57.72;98474.28;5017052;28;20077;-41
2023/10/21 01:40:15;;;;;;;2.00;1.42;;;;;;;19.85;57.78;98478.84;5019762;28;20057;-41
2023/10/21 01:42:42;;;;;;;3.65;2.30;;;;;;;19.86;57.96;98475.09;5019871;28;20053;-42
2023/10/21 01:45:09;;;;;;;1.80;1.38;;;;;;;19.85;57.73;98481.53;4994642;28;20049;-43
2023/10/21 01:47:36;;;;;;;2.50;1.23;;;;;;;19.84;57.93;98487.94;5006444;28;20558;-41
2023/10/21 01:50:07;;;;;;;3.38;1.58;;;;;;;19.84;57.86;98493.31;5015555;28;20399;-41
2023/10/21 01:52:37;;;;;;;3.53;1.65;;;;;;;19.84;58.10;98494.16;5018801;28;20103;-41
2023/10/21 01:55:04;;;;;;;3.08;1.60;;;;;;;19.83;58.12;98495.19;5017263;28;20038;-43
2023/10/21 01:57:32;;;;;;;2.15;1.40;;;;;;;19.83;57.70;98499.75;5019702;28;20507;-41
2023/10/21 01:59:59;;;;;;;2.00;1.25;;;;;;;19.82;57.88;98496.25;5023061;28;20073;-41
2023/10/21 02:02:27;;;;;;;2.97;1.60;;;;;;;19.84;57.51;98504.09;5022176;28;20046;-41
2023/10/21 02:04:54;;;;;;;2.38;1.20;;;;;;;19.83;57.98;98516.69;5022363;28;20066;-41
2023/10/21 02:07:21;;;;;;;2.65;1.48;;;;;;;19.83;57.53;98513.19;5012761;28;20538;-41
2023/10/21 02:09:48;;;;;;;2.08;1.58;;;;;;;19.81;57.63;98513.41;5021437;28;20621;-41
2023/10/21 02:12:15;;;;;;;2.13;1.33;;;;;;;19.81;58.06;98518.78;5020505;28;20057;-41
2023/10/21 02:14:42;;;;;;;3.90;1.50;;;;;;;19.81;57.51;98529.53;5022814;28;20475;-41
2023/10/21 02:17:08;;;;;;;3.92;1.50;;;;;;;19.82;57.60;98530.34;5023645;28;20050;-41
2023/10/21 02:19:35;;;;;;;2.42;1.30;;;;;;;19.80;58.15;98527.91;5022639;28;20053;-41
2023/10/21 02:22:02;;;;;;;3.85;1.40;;;;;;;19.81;57.96;98532.22;5022604;28;20135;-41
2023/10/21 02:24:29;;;;;;;2.42;1.20;;;;;;;19.81;58.14;98529.53;5020391;28;20484;-41
2023/10/21 02:26:55;;;;;;;1.90;1.33;;;;;;;19.80;57.97;98541.34;4995114;28;20061;-42
2023/10/21 02:29:22;;;;;;;2.20;1.50;;;;;;;19.79;58.20;98542.38;5031808;28;20053;-41
2023/10/21 02:31:49;;;;;;;2.47;1.45;;;;;;;19.80;58.07;98545.88;5020814;28;20477;-41
2023/10/21 02:34:16;;;;;;;3.03;1.25;;;;;;;19.80;57.36;98545.88;5022086;28;20049;-41
2023/10/21 02:36:42;;;;;;;2.20;1.55;;;;;;;19.79;58.08;98546.94;5023002;28;20221;-42
2023/10/21 02:39:09;;;;;;;2.50;1.35;;;;;;;19.78;57.99;98550.66;5020768;28;20464;-41
2023/10/21 02:41:37;;;;;;;1.60;1.38;;;;;;;19.78;58.04;98556.88;5020832;28;20050;-41
2023/10/21 02:44:04;;;;;;;2.28;1.23;;;;;;;19.78;58.13;98558.72;5024849;28;20132;-41
2023/10/21 02:46:30;;;;;;;2.05;1.30;;;;;;;19.78;57.92;98553.34;4996672;28;20053;-41
2023/10/21 02:48:58;;;;;;;2.08;1.20;;;;;;;19.77;57.57;98563.28;5030076;28;20669;-41
2023/10/21 02:51:25;;;;;;;2.28;1.45;;;;;;;19.77;57.46;98557.91;5023314;28;20080;-41
2023/10/21 02:53:52;;;;;;;1.60;1.15;;;;;;;19.77;57.25;98570.50;5020534;28;20123;-42
2023/10/21 02:56:19;;;;;;;2.40;1.13;;;;;;;19.76;57.50;98563.50;5022795;28;20049;-41
2023/10/21 02:58:46;;;;;;;2.33;1.30;;;;;;;19.75;57.90;98570.75;5022754;28;20381;-42
2023/10/21 03:01:20;;;;;;;2.15;1.33;;;;;;;19.73;57.24;98570.13;5021037;28;20480;-41
2023/10/21 03:03:48;;;;;;;4.55;1.30;;;;;;;19.75;57.55;98578.81;5021238;28;20058;-41
2023/10/21 03:06:19;;;;;;;2.35;1.30;;;;;;;19.74;57.66;98571.78;4983728;28;20048;-41
2023/10/21 03:08:45;;;;;;;3.63;1.27;;;;;;;19.74;57.41;98571.78;5019971;28;20549;-41
2023/10/21 03:11:12;;;;;;;1.92;1.15;;;;;;;19.74;57.46;98585.25;5020365;28;20123;-41
2023/10/21 03:13:39;;;;;;;2.58;1.38;;;;;;;19.72;57.46;98582.75;5018444;28;20061;-41
2023/10/21 03:16:07;;;;;;;2.42;1.23;;;;;;;19.73;57.64;98586.25;5021578;28;20136;-41
2023/10/21 03:18:36;;;;;;;3.53;1.10;;;;;;;19.72;57.81;98593.50;5022028;28;20119;-41
2023/10/21 03:21:06;;;;;;;2.20;1.30;;;;;;;19.73;58.03;98602.38;5022945;28;20358;-41
2023/10/21 03:23:33;;;;;;;3.35;1.20;;;;;;;19.72;57.52;98587.31;5020727;28;20053;-41
2023/10/21 03:26:04;;;;;;;1.42;1.00;;;;;;;19.72;58.04;98593.50;4986925;28;20153;-41
2023/10/21 03:28:31;;;;;;;1.58;1.05;;;;;;;19.71;58.04;98591.88;5021490;28;20058;-41
2023/10/21 03:30:59;;;;;;;5.82;1.20;;;;;;;19.71;57.75;98594.56;5019923;28;20049;-41
2023/10/21 03:33:27;;;;;;;1.70;1.30;;;;;;;19.70;57.87;98597.47;5023715;28;20057;-41
2023/10/21 03:35:56;;;;;;;2.28;1.10;;;;;;;19.70;57.86;98600.16;5020341;28;20461;-42
2023/10/21 03:38:23;;;;;;;1.63;1.25;;;;;;;19.69;57.54;98607.38;5019750;28;20049;-41
2023/10/21 03:41:02;;;;;;;1.75;1.15;;;;;;;19.67;57.04;98606.78;5021156;28;20181;-41
2023/10/21 03:43:29;;;;;;;1.98;1.20;;;;;;;19.69;57.15;98617.31;5018341;28;20112;-41
2023/10/21 03:45:56;;;;;;;2.25;1.25;;;;;;;19.68;57.34;98621.03;4980469;28;20377;-42
2023/10/21 03:48:23;;;;;;;1.83;1.17;;;;;;;19.68;57.69;98624.53;5019160;28;20057;-42
2023/10/21 03:50:50;;;;;;;2.17;1.23;;;;;;;19.67;57.46;98628.28;5021737;28;20049;-41
2023/10/21 03:53:17;;;;;;;1.63;1.08;;;;;;;19.67;57.88;98630.16;5018058;28;20054;-41
2023/10/21 03:55:44;;;;;;;2.38;1.13;;;;;;;19.67;57.75;98627.47;5019214;28;20049;-41
2023/10/21 03:58:11;;;;;;;1.30;0.90;;;;;;;19.66;57.81;98629.34;5021744;28;20369;-41
2023/10/21 04:00:38;;;;;;;1.27;0.90;;;;;;;19.66;57.33;98633.88;5020688;28;20140;-41
2023/10/21 04:03:07;;;;;;;2.08;1.10;;;;;;;19.65;57.40;98638.41;5018469;28;20140;-41
2023/10/21 04:05:34;;;;;;;2.45;1.05;;;;;;;19.65;57.24;98643.78;5017976;28;20438;-41
2023/10/21 04:08:04;;;;;;;2.67;1.10;;;;;;;19.64;57.36;98647.53;4998124;28;20152;-41
2023/10/21 04:10:32;;;;;;;1.45;1.10;;;;;;;19.65;57.92;98640.28;5023341;28;20057;-41
2023/10/21 04:12:59;;;;;;;2.30;1.15;;;;;;;19.66;57.63;98660.75;5016349;28;20326;-42
2023/10/21 04:15:26;;;;;;;1.63;1.10;;;;;;;19.65;57.26;98659.91;5019106;28;20149;-42
2023/10/21 04:17:52;;;;;;;1.17;0.80;;;;;;;19.66;57.22;98658.06;5020833;28;20053;-42
2023/10/21 04:20:19;;;;;;;1.73;1.23;;;;;;;19.66;57.96;98666.13;5021111;28;20428;-41
2023/10/21 04:22:46;;;;;;;1.75;1.05;;;;;;;19.66;57.83;98669.66;5018250;28;20519;-42
2023/10/21 04:25:12;;;;;;;2.67;1.10;;;;;;;19.66;57.67;98674.19;5021310;28;20073;-41
2023/10/21 04:27:39;;;;;;;1.83;1.00;;;;;;;19.67;57.62;98687.41;4992944;28;20065;-41
2023/10/21 04:30:07;;;;;;;4.13;1.10;;;;;;;19.66;57.54;98688.47;5020951;28;20111;-41
2023/10/21 04:32:34;;;;;;;2.10;1.10;;;;;;;19.66;57.81;98683.09;5019043;28;20049;-41
2023/10/21 04:35:01;;;;;;;2.72;0.90;;;;;;;19.67;57.82;98683.91;5021301;28;20526;-42
2023/10/21 04:37:28;;;;;;;1.20;0.80;;;;;;;19.66;57.81;98691.16;5017352;28;20064;-41
2023/10/21 04:39:54;;;;;;;1.65;1.20;;;;;;;19.64;57.57;98690.53;5020173;28;20061;-41
2023/10/21 04:42:21;;;;;;;2.72;1.20;;;;;;;19.65;57.74;98697.53;5016805;28;20454;-41
2023/10/21 04:44:47;;;;;;;2.75;1.10;;;;;;;19.64;57.77;98701.28;5037545;28;20054;-41
2023/10/21 04:47:15;;;;;;;1.42;0.98;;;;;;;19.64;57.63;98712.03;4981580;28;20057;-41
2023/10/21 04:49:45;;;;;;;3.15;1.30;;;;;;;19.65;56.90;98702.09;5018284;28;20138;-41
2023/10/21 04:52:13;;;;;;;1.92;1.15;;;;;;;19.64;57.24;98711.19;5017559;28;20108;-42
2023/10/21 04:54:41;;;;;;;2.40;1.02;;;;;;;19.64;57.14;98712.03;5017122;28;20059;-41
2023/10/21 04:57:09;;;;;;;1.38;0.82;;;;;;;19.64;57.14;98725.47;5021713;28;20144;-42
2023/10/21 04:59:38;;;;;;;1.48;1.38;;;;;;;19.63;57.14;98726.50;5020483;28;20140;-42
2023/10/21 05:02:05;;;;;;;1.52;0.90;;;;;;;19.63;57.29;98721.13;5015940;28;20399;-42
2023/10/21 05:04:32;;;;;;;2.53;1.02;;;;;;;19.63;57.37;98726.50;5016697;28;20131;-41
2023/10/21 05:06:59;;;;;;;2.33;0.95;;;;;;;19.62;56.85;98732.94;4994112;28;20053;-42
2023/10/21 05:09:26;;;;;;;3.25;1.27;;;;;;;19.62;57.13;98746.38;5032988;28;20378;-41
2023/10/21 05:11:53;;;;;;;2.55;1.35;;;;;;;19.61;57.83;98744.69;5019273;28;20057;-41
2023/10/21 05:14:19;;;;;;;2.40;1.05;;;;;;;19.62;57.54;98750.91;5021871;28;20053;-41
2023/10/21 05:16:46;;;;;;;3.92;1.35;;;;;;;19.61;57.21;98758.13;5016210;28;20424;-42
2023/10/21 05:19:13;;;;;;;5.95;1.40;;;;;;;19.61;57.49;98765.34;5019189;28;20509;-41
2023/10/21 05:21:39;;;;;;;3.92;0.93;;;;;;;19.62;57.61;98775.09;5021211;28;20049;-41
2023/10/21 05:24:06;;;;;;;2.05;1.02;;;;;;;19.60;57.59;98777.97;5019218;28;20119;-42
2023/10/21 05:26:33;;;;;;;2.88;1.23;;;;;;;19.60;56.83;98777.13;4980275;28;20116;-42
2023/10/21 05:28:59;;;;;;;3.25;1.60;;;;;;;19.61;57.59;98789.53;5033808;28;20053;-41
2023/10/21 05:31:26;;;;;;;2.33;1.13;;;;;;;19.60;57.19;98791.41;5021450;28;20054;-42
2023/10/21 05:33:57;;;;;;;2.38;1.10;;;;;;;19.59;57.61;98795.13;5020755;28;20196;-41
2023/10/21 05:36:25;;;;;;;3.53;1.20;;;;;;;19.60;57.38;98796.78;5022392;28;20049;-41
2023/10/21 05:38:52;;;;;;;3.30;1.10;;;;;;;19.59;57.20;98797.81;5020723;28;20081;-40
2023/10/21 05:41:18;;;;;;;2.40;1.08;;;;;;;19.60;57.42;98801.31;5021466;28;20460;-42
2023/10/21 05:43:45;;;;;;;3.28;1.38;;;;;;;19.59;57.76;98805.88;5024615;28;20115;-41
2023/10/21 05:46:12;;;;;;;2.05;1.13;;;;;;;19.59;57.52;98816.63;5013069;28;20037;-41
2023/10/21 05:48:39;;;;;;;1.90;1.25;;;;;;;19.59;57.03;98810.44;5019982;28;20195;-41
2023/10/21 05:51:05;;;;;;;1.98;1.35;;;;;;;19.60;57.51;98818.28;5024608;28;20049;-42
2023/10/21 05:53:33;;;;;;;1.85;0.93;;;;;;;19.60;57.26;98829.00;5023230;28;20120;-41
2023/10/21 05:55:59;;;;;;;2.20;0.90;;;;;;;19.60;56.84;98818.28;5025629;28;20053;-41
2023/10/21 05:58:29;;;;;;;3.58;1.08;;;;;;;19.60;57.01;98826.31;5024879;28;20503;-41
2023/10/21 06:01:08;;;;;;;1.52;0.90;;;;;;;19.59;57.47;98816.63;5025082;28;20055;-41
2023/10/21 06:03:35;;;;;;;1.77;1.02;;;;;;;19.61;57.47;98819.94;5026281;28;20115;-41
2023/10/21 06:06:03;;;;;;;2.83;1.00;;;;;;;19.61;56.97;98825.31;5024762;28;20045;-41
2023/10/21 06:08:30;;;;;;;3.47;1.05;;;;;;;19.60;57.58;98839.75;5001384;28;20048;-41
2023/10/21 06:10:57;;;;;;;1.30;0.90;;;;;;;19.61;57.49;98846.81;5026084;28;20053;-40
2023/10/21 06:13:24;;;;;;;1.20;0.80;;;;;;;19.61;56.84;98854.88;5023502;28;20049;-41
2023/10/21 06:15:52;;;;;;;3.28;1.30;;;;;;;19.61;57.72;98854.03;5020419;28;20042;-41
2023/10/21 06:18:20;;;;;;;2.05;1.13;;;;;;;19.61;57.13;98862.94;5025644;28;20085;-41
2023/10/21 06:20:50;;;;;;;3.72;1.02;;;;;;;19.61;57.48;98868.31;5022924;28;20060;-41
2023/10/21 06:23:17;;;;;;;1.10;0.70;;;;;;;19.60;56.87;98863.94;5022878;28;20052;-41
2023/10/21 06:25:44;;;;;;;2.55;1.10;;;;;;;19.62;57.18;98871.84;5024018;28;20985;-41
2023/10/21 06:28:13;;;;;;;2.05;0.90;;;;;;;19.61;57.73;98868.31;4994425;28;20110;-41
2023/10/21 06:30:40;;;;;;;2.60;0.90;;;;;;;19.62;57.66;98874.53;5015132;28;20144;-41
2023/10/21 06:33:09;;;;;;;2.83;0.95;;;;;;;19.63;57.41;98876.19;5021788;28;20056;-41
2023/10/21 06:35:39;;;;;;;1.58;0.70;;;;;;;19.62;57.16;98886.13;5017785;28;20050;-41
2023/10/21 06:38:07;;;;;;;1.48;1.02;;;;;;;19.62;57.39;98880.75;5020444;28;20077;-41
2023/10/21 06:40:34;;;;;;;2.45;1.10;;;;;;;19.62;57.32;98890.66;5019811;28;20445;-41
2023/10/21 06:43:22;;;;;;;4.07;0.90;;;;;;;19.62;56.93;98901.41;5021046;28;20433;-41
2023/10/21 06:45:49;;;;;;;1.70;1.02;;;;;;;19.62;57.47;98907.63;5019874;28;20429;-41
2023/10/21 06:48:17;;;;;;;2.08;0.98;;;;;;;19.62;56.78;98904.94;4993763;28;20073;-41
2023/10/21 06:50:43;;;;;;;2.72;1.15;;;;;;;19.62;56.96;98918.38;5022700;28;20044;-41
2023/10/21 06:53:10;;;;;;;3.20;1.17;;;;;;;19.62;57.67;98917.53;5022917;28;20456;-41
2023/10/21 06:55:44;;;;;;;1.42;0.82;;;;;;;19.61;57.57;98921.22;5023594;28;20416;-41
2023/10/21 06:58:12;;;;;;;2.70;0.90;;;;;;;19.62;56.77;98922.91;5022535;28;20051;-41
2023/10/21 07:00:38;;;;;;;3.78;1.17;;;;;;;19.62;56.76;98928.28;5019497;28;20056;-41
2023/10/21 07:03:05;;;;;;;1.60;0.75;;;;;;;19.61;56.85;98932.81;5021929;28;20053;-41
2023/10/21 07:05:33;;;;;;;2.45;1.15;;;;;;;19.61;57.17;98935.50;5019406;28;20064;-41
2023/10/21 07:08:00;;;;;;;1.75;0.60;;;;;;;19.61;57.35;98934.66;4983549;28;20065;-41
2023/10/21 07:10:30;;;;;;;2.08;1.00;;;;;;;19.61;56.95;98942.72;5027448;28;20923;-41
2023/10/21 07:12:58;;;;;;;2.58;0.95;;;;;;;19.62;56.66;98942.56;5022697;28;20053;-42
2023/10/21 07:15:28;;;;;;;3.40;1.02;;;;;;;19.61;56.83;98940.88;5020238;28;20248;-41
2023/10/21 07:17:56;;;;;;;2.55;1.10;;;;;;;19.62;56.90;98945.25;5022428;28;20076;-41
2023/10/21 07:20:23;;;;;;;2.67;1.58;;;;;;;19.62;57.46;98947.94;5020774;28;20050;-41
2023/10/21 07:22:50;;;;;;;2.78;1.23;;;;;;;19.61;57.24;98951.63;5016901;28;20085;-41
2023/10/21 07:25:19;;;;;;;5.18;1.20;;;;;;;19.63;57.25;98959.50;5012232;28;20693;-41
2023/10/21 07:27:46;;;;;;;2.05;1.00;;;;;;;19.63;56.57;98962.19;4984822;28;20472;-41
2023/10/21 07:30:14;;;;;;;2.45;1.00;;;;;;;19.63;57.31;98956.81;5028022;28;20065;-41
2023/10/21 07:32:41;;;;;;;3.97;0.93;;;;;;;19.63;57.23;98971.06;5022845;28;20051;-42
2023/10/21 07:35:09;;;;;;;1.95;1.42;;;;;;;19.62;57.32;98974.81;5020298;28;20050;-42
2023/10/21 07:37:37;;;;;;;2.15;0.90;;;;;;;19.62;56.56;98976.66;5020686;28;20454;-41
2023/10/21 07:40:05;;;;;;;3.60;1.15;;;;;;;19.62;57.12;98982.88;5019835;28;20053;-42
2023/10/21 07:42:32;;;;;;;2.92;1.00;;;;;;;19.62;57.24;98988.25;5019805;28;20045;-41
2023/10/21 07:44:59;;;;;;;2.35;1.00;;;;;;;19.61;56.94;98986.56;5022315;28;20110;-42
2023/10/21 07:47:26;;;;;;;1.83;1.00;;;;;;;19.60;57.23;98995.63;4982738;28;20053;-41
2023/10/21 07:49:53;;;;;;;1.75;1.00;;;;;;;19.62;56.83;99000.84;5031648;28;20056;-40
2023/10/21 07:52:22;;;;;;;2.10;1.05;;;;;;;19.62;56.88;98999.00;4989308;28;21194;-42
2023/10/21 07:54:49;;;;;;;3.83;1.40;;;;;;;19.63;57.24;99006.00;5013205;28;20049;-38
2023/10/21 07:57:16;;;;;;;2.33;0.90;;;;;;;19.64;57.20;99012.22;5017656;28;20053;-41
2023/10/21 07:59:43;;;;;;;3.42;1.50;;;;;;;19.64;58.36;99018.41;5020615;28;20053;-42
2023/10/21 08:02:10;;;;;;;1.75;1.02;;;;;;;19.66;58.48;99016.34;5019944;28;20457;-44
2023/10/21 08:04:36;;;;;;;2.30;0.98;;;;;;;19.67;58.46;99025.22;5017740;28;20049;-41
2023/10/21 08:07:03;;;;;;;3.22;1.17;;;;;;;19.68;58.67;99032.25;5017912;28;20428;-42
2023/10/21 08:09:30;;;;;;;3.53;1.20;;;;;;;19.69;58.30;99039.28;5022260;28;20053;-43
2023/10/21 08:11:57;;;;;;;5.07;1.00;;;;;;;19.70;58.46;99043.63;5021600;28;20204;-41
2023/10/21 08:14:27;;;;;;;2.88;1.17;;;;;;;19.70;58.59;99049.84;4996755;28;20057;-42
2023/10/21 08:16:53;;;;;;;1.70;1.13;;;;;;;19.71;58.50;99056.03;5018376;28;20045;-38
2023/10/21 08:19:20;;;;;;;4.50;1.42;;;;;;;19.74;59.39;99055.63;5024768;28;20084;-40
2023/10/21 08:21:47;;;;;;;7.93;1.42;;;;;;;19.75;59.77;99056.44;4991342;28;20060;-41
2023/10/21 08:24:13;;;;;;;3.20;1.02;;;;;;;19.78;59.84;99066.75;5024056;28;20084;-40
2023/10/21 08:26:40;;;;;;;13.05;2.03;;;;;;;19.80;59.66;99062.84;5017933;28;21705;-41
2023/10/21 08:29:10;;;;;;;6.00;1.48;;;;;;;19.82;59.87;99074.22;5017961;28;20401;-41
2023/10/21 08:31:36;;;;;;;7.18;1.88;;;;;;;19.85;60.60;99075.66;5015012;28;20053;-45
2023/10/21 08:34:03;;;;;;;10.00;2.00;;;;;;;19.87;60.57;99081.66;5015424;28;20103;-43
2023/10/21 08:36:30;;;;;;;6.60;2.13;;;;;;;19.88;60.61;99092.19;5017399;28;20053;-44
2023/10/21 08:38:56;;;;;;;8.48;2.70;;;;;;;19.89;60.88;99084.97;5016363;28;20061;-45
2023/10/21 08:41:23;;;;;;;14.38;3.00;;;;;;;19.92;61.11;99096.13;4991744;28;20061;-43
2023/10/21 08:43:50;;;;;;;8.48;3.22;;;;;;;19.93;60.70;99102.31;5026812;28;20517;-44
2023/10/21 08:46:18;;;;;;;10.68;3.00;;;;;;;19.95;60.52;99106.47;5017404;28;20057;-41
2023/10/21 08:48:46;;;;;;;10.93;3.00;;;;;;;19.95;61.22;99111.03;5019832;28;20148;-43
2023/10/21 08:51:22;;;;;;;13.00;4.30;;;;;;;19.94;61.13;99115.59;5020468;28;20057;-43
2023/10/21 08:53:57;;;;;;;9.45;3.47;;;;;;;19.96;60.99;99120.75;5015736;28;20053;-43
2023/10/21 08:56:23;;;;;;;14.35;4.03;;;;;;;19.97;60.92;99127.75;5019453;28;20049;-44
2023/10/21 08:58:51;;;;;;;13.35;4.05;;;;;;;19.97;60.27;99135.84;5018023;28;20061;-45
2023/10/21 09:01:17;;;;;;;11.13;3.80;;;;;;;19.97;60.00;99138.53;4978793;28;20099;-46
2023/10/21 09:03:45;;;;;;;11.43;3.80;;;;;;;19.97;60.37;99147.41;5018711;28;20055;-45
2023/10/21 09:06:12;;;;;;;10.90;4.00;;;;;;;19.96;59.99;99151.16;5017269;28;20051;-44
2023/10/21 09:08:40;;;;;;;8.80;3.40;;;;;;;19.97;60.00;99151.97;5016337;28;20603;-44
2023/10/21 09:11:18;;;;;;;10.93;3.08;;;;;;;19.96;60.05;99164.59;5019290;28;20053;-45
2023/10/21 09:13:45;;;;;;;11.00;3.58;;;;;;;19.96;60.08;99156.53;5020398;28;20678;-46
2023/10/21 09:16:34;;;;;;;11.68;3.75;;;;;;;19.96;59.64;99163.75;5015086;28;20538;-43
2023/10/21 09:19:07;;;;;;;10.63;3.60;;;;;;;19.97;60.05;99168.94;5021130;28;20045;-43
2023/10/21 09:21:38;;;;;;;8.85;3.10;;;;;;;19.96;59.15;99182.59;4980532;28;20067;-44
2023/10/21 09:24:12;;;;;;;15.05;4.18;;;;;;;19.96;59.10;99172.66;5024457;28;20079;-45
2023/10/21 09:26:39;;;;;;;;;;;;;;;19.94;59.84;99179.28;5018295;28;20061;-43
2023/10/21 09:29:13;;;;;;;9.60;3.10;;;;;;;19.99;59.43;99186.75;5013358;28;20375;-44
2023/10/21 09:31:53;;;;;;;7.28;2.58;;;;;;;19.96;58.97;99191.47;5005836;28;20100;-43
2023/10/21 09:34:34;;;;;;;9.57;2.80;;;;;;;19.95;59.61;99195.22;5017746;28;20469;-44
2023/10/21 09:37:05;;;;;;;5.55;2.45;;;;;;;19.95;58.93;99202.44;5016373;28;20103;-45
2023/10/21 09:39:36;;;;;;;7.25;2.40;;;;;;;19.93;59.07;99199.94;5020960;28;20085;-46
2023/10/21 09:42:05;;;;;;;7.60;2.17;;;;;;;19.92;58.95;99201.00;4972816;28;20057;-45
2023/10/21 09:44:36;;;;;;;6.53;2.05;;;;;;;19.93;58.78;99204.50;5010428;28;20438;-44
2023/10/21 09:47:05;;;;;;;5.50;2.58;;;;;;;19.92;59.06;99206.38;5019444;28;20136;-43
2023/10/21 09:49:39;;;;;;;3.65;1.83;;;;;;;19.93;59.09;99207.19;5017832;28;20403;-44
2023/10/21 09:52:07;;;;;;;;;;;;;;;19.90;58.72;99211.16;5022455;28;20096;-43
2023/10/21 09:54:43;;;;;;;8.10;2.00;;;;;;;19.95;58.82;99216.72;5016434;28;19999;-44
2023/10/21 09:57:12;;;;;;;5.38;1.90;;;;;;;19.95;59.21;99215.91;5019619;28;20132;-45
2023/10/21 09:59:44;;;;;;;4.45;2.30;;;;;;;19.95;58.36;99223.97;5015678;28;20049;-43
2023/10/21 10:02:14;;;;;;;4.03;1.98;;;;;;;19.94;59.18;99228.53;4966697;28;20053;-44
2023/10/21 10:04:40;;;;;;;5.45;1.88;;;;;;;19.94;58.73;99228.53;5019153;28;20409;-45
2023/10/21 10:07:07;;;;;;;7.97;1.85;;;;;;;19.95;58.68;99227.47;5019779;28;20171;-45
2023/10/21 10:09:44;;;;;;;3.97;1.90;;;;;;;19.95;59.05;99232.03;5018756;28;20131;-43
2023/10/21 10:12:22;;;;;;;3.83;2.08;;;;;;;19.95;58.33;99237.41;5014621;28;20093;-44
2023/10/21 10:14:49;;;;;;;3.95;1.58;;;;;;;19.96;59.25;99242.56;5020230;28;21579;-45
2023/10/21 10:17:49;;;;;;;3.50;1.58;;;;;;;19.94;58.78;99243.84;5018305;28;20050;-44
2023/10/21 10:20:22;;;;;;;4.50;1.58;;;;;;;19.99;58.91;99246.72;4987198;28;20080;-43
2023/10/21 10:23:09;;;;;;;3.05;1.55;;;;;;;20.00;58.64;99252.94;5010064;28;20155;-44
2023/10/21 10:25:38;;;;;;;2.55;1.45;;;;;;;20.04;58.88;99248.78;5021465;28;20145;-45
2023/10/21 10:28:19;;;;;;;3.50;1.60;;;;;;;20.04;57.67;99257.69;5021632;28;20049;-43
2023/10/21 10:30:49;;;;;;;3.97;1.63;;;;;;;20.05;58.07;99264.72;5021037;28;20057;-43
2023/10/21 10:33:22;;;;;;;3.90;1.42;;;;;;;20.06;57.73;99261.00;5022847;28;20054;-45
2023/10/21 10:35:53;;;;;;;23.50;2.10;;;;;;;20.08;58.05;99266.19;5020271;28;20127;-44
2023/10/21 10:38:34;;;;;;;4.40;1.45;;;;;;;20.09;58.15;99274.03;5021621;28;20049;-45
2023/10/21 10:41:09;;;;;;;4.53;1.85;;;;;;;20.11;58.47;99263.91;4994842;28;20057;-44
2023/10/21 10:43:48;;;;;;;3.25;1.52;;;;;;;20.12;57.60;99276.31;4993028;28;20053;-45
2023/10/21 10:46:25;;;;;;;4.60;1.30;;;;;;;20.13;57.47;99288.72;5019719;28;20066;-44
2023/10/21 10:48:52;;;;;;;4.57;1.30;;;;;;;20.13;57.15;99280.66;5017171;28;20049;-45
2023/10/21 10:51:21;;;;;;;4.70;1.50;;;;;;;20.13;57.27;99286.03;5018400;28;20068;-44
2023/10/21 10:53:56;;;;;;;3.00;1.13;;;;;;;20.12;57.70;99279.00;5018363;28;20053;-45
2023/10/21 10:56:25;;;;;;;3.55;1.20;;;;;;;20.14;57.17;99287.72;5022922;28;20060;-44
2023/10/21 10:58:52;;;;;;;4.03;1.38;;;;;;;20.15;57.76;99288.53;5022165;28;20145;-44
2023/10/21 11:01:25;;;;;;;4.25;1.10;;;;;;;20.15;57.53;99294.75;4981434;28;20105;-44
2023/10/21 11:03:56;;;;;;;5.13;1.40;;;;;;;20.14;56.56;99293.09;5017539;28;20041;-44
2023/10/21 11:06:28;;;;;;;2.83;1.13;;;;;;;20.15;56.38;99292.06;5019487;28;20072;-44
2023/10/21 11:08:56;;;;;;;3.05;1.23;;;;;;;20.17;56.83;99305.28;5015568;28;20057;-45
2023/10/21 11:11:23;;;;;;;3.10;1.50;;;;;;;20.18;56.97;99298.88;5018767;28;20045;-43
2023/10/21 11:13:50;;;;;;;2.30;0.98;;;;;;;20.18;56.62;99301.56;5019644;28;20073;-45
2023/10/21 11:16:18;;;;;;;3.75;1.23;;;;;;;20.18;56.59;99293.47;5018376;28;20396;-43
2023/10/21 11:18:44;;;;;;;3.13;0.90;;;;;;;20.18;56.39;99305.09;5020543;28;20041;-43
2023/10/21 11:21:11;;;;;;;4.03;1.20;;;;;;;20.19;56.49;99305.94;4993733;28;20049;-44
2023/10/21 11:23:38;;;;;;;2.13;1.10;;;;;;;20.20;56.81;99308.41;5006502;28;20148;-43
2023/10/21 11:26:07;;;;;;;3.28;1.20;;;;;;;20.20;55.85;99305.72;5019160;28;20208;-44
2023/10/21 11:28:38;;;;;;;2.13;1.10;;;;;;;20.21;56.65;99307.34;5019174;28;20049;-43
2023/10/21 11:31:05;;;;;;;4.28;1.38;;;;;;;20.25;57.09;99312.34;5018597;28;20124;-45
2023/10/21 11:33:32;;;;;;;2.35;0.93;;;;;;;20.26;57.03;99312.16;5022075;28;20483;-47
2023/10/21 11:36:02;;;;;;;4.85;1.65;;;;;;;20.27;57.82;99323.72;5017513;28;20053;-44
2023/10/21 11:38:30;;;;;;;5.90;1.63;;;;;;;20.27;57.45;99318.34;5020254;28;20952;-44
2023/10/21 11:40:56;;;;;;;3.03;1.50;;;;;;;20.27;56.83;99321.03;5020215;28;20196;-43